Time;durP1;ratioP1;P1;durP2;ratioP2;P2;SDS_P1;SDS_P2;PMS_P1;PMS_P2;Temp;Humidity;BMP_temperature;BMP_pressure;BME280_temperature;BME280_humidity;BME280_pressure;Samples;Min_cycle;Max_cycle;Signal;HPM_P1;HPM_P2
2022/03/07 00:00:37;;;;;;;0.53;0.20;;;2.00;99.90;;;;;;4960271;29;20451;-73
2022/03/07 00:03:05;;;;;;;0.53;0.20;;;2.00;99.90;;;;;;4962038;29;20463;-74
2022/03/07 00:05:36;;;;;;;1.80;1.70;;;1.90;99.90;;;;;;4960640;28;20553;-74
2022/03/07 00:08:06;;;;;;;0.60;0.23;;;1.90;99.90;;;;;;4959622;29;20535;-73
2022/03/07 00:10:54;;;;;;;0.50;0.10;;;1.70;99.90;;;;;;4959658;29;20446;-73
2022/03/07 00:13:22;;;;;;;0.70;0.57;;;1.60;99.90;;;;;;4960556;29;20834;-74
2022/03/07 00:15:50;;;;;;;0.60;0.40;;;1.50;99.90;;;;;;4959749;28;20482;-73
2022/03/07 00:18:18;;;;;;;1.17;0.93;;;1.50;99.90;;;;;;4964187;28;20482;-73
2022/03/07 00:20:46;;;;;;;0.50;0.20;;;1.40;99.90;;;;;;4965433;28;20588;-73
2022/03/07 00:23:15;;;;;;;2.00;1.60;;;1.40;99.90;;;;;;4969753;29;20566;-73
2022/03/07 00:25:43;;;;;;;0.60;0.40;;;1.30;99.90;;;;;;4966881;29;20539;-75
2022/03/07 00:28:11;;;;;;;0.50;0.10;;;1.30;99.90;;;;;;4963679;29;20442;-74
2022/03/07 00:30:39;;;;;;;0.50;0.10;;;1.40;99.90;;;;;;4963272;29;20546;-74
2022/03/07 00:33:07;;;;;;;0.50;0.10;;;1.40;99.90;;;;;;4952493;29;20865;-76
2022/03/07 00:35:35;;;;;;;0.50;0.10;;;1.30;99.90;;;;;;4943859;29;20455;-75
2022/03/07 00:38:03;;;;;;;1.80;1.70;;;1.30;99.90;;;;;;4943325;29;20498;-74
2022/03/07 00:40:33;;;;;;;0.60;0.40;;;1.30;99.90;;;;;;4941658;29;20539;-75
2022/03/07 00:43:01;;;;;;;0.70;0.40;;;1.30;99.90;;;;;;4940259;29;20475;-76
2022/03/07 00:45:28;;;;;;;0.50;0.10;;;1.30;99.90;;;;;;4939103;29;20554;-76
2022/03/07 00:47:56;;;;;;;0.70;0.40;;;1.20;99.90;;;;;;4939007;29;20476;-75
2022/03/07 00:50:24;;;;;;;1.27;1.17;;;1.20;99.90;;;;;;4939599;29;20555;-75
2022/03/07 00:52:52;;;;;;;0.50;0.10;;;1.20;99.90;;;;;;4940266;29;20451;-75
2022/03/07 00:55:20;;;;;;;0.73;0.73;;;1.20;99.90;;;;;;4943666;29;20455;-75
2022/03/07 00:57:49;;;;;;;0.60;0.37;;;1.20;99.90;;;;;;4938382;29;20467;-74
2022/03/07 01:00:21;;;;;;;0.70;0.40;;;1.10;99.90;;;;;;4938863;29;20448;-74
2022/03/07 01:02:49;;;;;;;0.73;0.73;;;1.10;99.90;;;;;;4939339;29;20531;-76
2022/03/07 01:05:18;;;;;;;0.50;0.10;;;1.10;99.90;;;;;;4941188;29;20444;-75
2022/03/07 01:07:46;;;;;;;2.30;2.20;;;;;;;;;;4958122;29;20450;-75
2022/03/07 01:10:16;;;;;;;0.60;0.30;;;1.10;99.90;;;;;;4962073;29;20451;-75
2022/03/07 01:12:44;;;;;;;0.87;0.67;;;1.10;99.90;;;;;;4958228;29;20482;-76
2022/03/07 01:15:14;;;;;;;0.97;0.97;;;1.10;99.90;;;;;;4960171;29;20558;-75
2022/03/07 01:17:42;;;;;;;0.50;0.10;;;1.20;99.90;;;;;;4957920;29;20434;-75
2022/03/07 01:20:12;;;;;;;0.93;0.83;;;1.20;99.90;;;;;;4961539;28;20534;-76
2022/03/07 01:22:41;;;;;;;0.57;0.37;;;1.10;99.90;;;;;;4956866;29;20470;-77
2022/03/07 01:25:10;;;;;;;2.33;2.07;;;1.10;99.90;;;;;;4939873;29;20460;-75
2022/03/07 01:27:38;;;;;;;0.83;0.57;;;1.10;99.90;;;;;;4960475;29;20455;-75
2022/03/07 01:30:07;;;;;;;1.67;1.57;;;1.00;99.90;;;;;;4959371;29;20446;-76
2022/03/07 01:32:36;;;;;;;0.50;0.30;;;;;;;;;;4958234;29;20510;-76
2022/03/07 01:35:06;;;;;;;0.50;0.20;;;1.00;99.90;;;;;;4957916;28;20470;-75
2022/03/07 01:37:34;;;;;;;0.60;0.30;;;;;;;;;;4958520;29;20470;-76
2022/03/07 01:40:02;;;;;;;4.23;1.00;;;1.10;99.90;;;;;;4957240;29;20688;-75
2022/03/07 01:42:30;;;;;;;0.50;0.10;;;1.10;99.90;;;;;;4954502;29;20453;-75
2022/03/07 01:45:08;;;;;;;0.50;0.20;;;1.00;99.90;;;;;;4937663;29;20488;-75
2022/03/07 01:47:37;;;;;;;2.13;1.70;;;1.00;99.90;;;;;;4940289;29;20436;-74
2022/03/07 01:50:06;;;;;;;0.50;0.10;;;0.90;99.90;;;;;;4936147;29;20554;-72
2022/03/07 01:52:34;;;;;;;1.57;0.73;;;0.90;99.90;;;;;;4937181;29;20959;-74
2022/03/07 01:55:03;;;;;;;1.53;1.43;;;0.90;99.90;;;;;;4937716;29;20456;-73
2022/03/07 01:57:31;;;;;;;1.50;1.40;;;0.90;99.90;;;;;;4946544;29;20474;-72
2022/03/07 01:59:58;;;;;;;0.60;0.30;;;0.80;99.90;;;;;;4956425;29;20525;-73
2022/03/07 02:02:26;;;;;;;0.50;0.20;;;0.80;99.90;;;;;;4957365;29;20828;-73
2022/03/07 02:04:56;;;;;;;1.03;0.87;;;0.80;99.90;;;;;;4958138;29;20458;-73
2022/03/07 02:07:24;;;;;;;0.50;0.20;;;0.90;99.90;;;;;;4955748;29;20458;-73
2022/03/07 02:09:53;;;;;;;0.50;0.20;;;0.90;99.90;;;;;;4955227;29;20435;-72
2022/03/07 02:12:20;;;;;;;0.60;0.40;;;0.90;99.90;;;;;;4954839;29;20458;-73
2022/03/07 02:14:48;;;;;;;0.50;0.20;;;0.90;99.90;;;;;;4955307;29;20478;-74
2022/03/07 02:17:16;;;;;;;0.50;0.20;;;;;;;;;;4957282;29;20455;-71
2022/03/07 02:19:44;;;;;;;2.40;0.97;;;0.90;99.90;;;;;;4956598;29;20479;-74
2022/03/07 02:22:15;;;;;;;0.77;0.73;;;0.90;99.90;;;;;;4955378;29;20810;-74
2022/03/07 02:24:44;;;;;;;1.70;1.60;;;0.80;99.90;;;;;;4954569;29;20478;-72
2022/03/07 02:27:13;;;;;;;1.20;1.10;;;0.80;99.90;;;;;;4937103;29;20444;-74
2022/03/07 02:29:41;;;;;;;4.77;1.10;;;0.80;99.90;;;;;;4935370;29;20961;-71
2022/03/07 02:32:09;;;;;;;0.60;0.50;;;0.80;99.90;;;;;;4935689;29;20452;-74
2022/03/07 02:34:40;;;;;;;2.40;2.20;;;0.80;99.90;;;;;;4935154;29;20476;-73
2022/03/07 02:37:08;;;;;;;4.23;3.90;;;0.90;99.90;;;;;;4934752;29;20455;-71
2022/03/07 02:39:37;;;;;;;0.80;0.73;;;0.90;99.90;;;;;;4935445;29;20514;-73
2022/03/07 02:42:25;;;;;;;0.90;0.53;;;0.90;99.90;;;;;;4935071;29;20527;-76
2022/03/07 02:44:53;;;;;;;0.50;0.10;;;0.90;99.90;;;;;;4935237;29;20459;-72
2022/03/07 02:47:22;;;;;;;0.60;0.33;;;0.90;99.90;;;;;;4934703;29;20463;-72
2022/03/07 02:49:49;;;;;;;1.53;1.43;;;0.90;99.90;;;;;;4936340;29;20444;-76
2022/03/07 02:52:17;;;;;;;0.50;0.10;;;0.90;99.90;;;;;;4935937;29;20448;-75
2022/03/07 02:54:46;;;;;;;0.50;0.10;;;0.90;99.90;;;;;;4945301;29;20558;-75
2022/03/07 02:57:14;;;;;;;0.50;0.10;;;0.90;99.90;;;;;;4955002;29;20493;-74
2022/03/07 02:59:42;;;;;;;1.60;1.50;;;0.80;99.90;;;;;;4955248;29;20483;-71
2022/03/07 03:02:10;;;;;;;0.87;0.37;;;0.90;99.90;;;;;;4956199;29;20447;-73
2022/03/07 03:04:40;;;;;;;1.37;1.27;;;0.80;99.90;;;;;;4957162;29;20474;-73
2022/03/07 03:07:08;;;;;;;1.30;0.67;;;0.80;99.90;;;;;;4955559;29;20450;-73
2022/03/07 03:09:36;;;;;;;1.67;1.30;;;0.80;99.90;;;;;;4942165;29;20475;-75
2022/03/07 03:12:10;;;;;;;0.50;0.10;;;0.80;99.90;;;;;;4936034;29;20456;-75
2022/03/07 03:14:39;;;;;;;2.07;1.97;;;0.80;99.90;;;;;;4941252;29;20568;-76
2022/03/07 03:17:07;;;;;;;0.70;0.50;;;0.80;99.90;;;;;;4937162;29;20468;-75
2022/03/07 03:19:35;;;;;;;0.50;0.20;;;0.90;99.90;;;;;;4935207;29;20646;-76
2022/03/07 03:22:04;;;;;;;6.43;1.73;;;0.90;99.90;;;;;;4935351;29;20961;-73
2022/03/07 03:24:31;;;;;;;0.90;0.70;;;0.90;99.90;;;;;;4989756;23;20517;-73
2022/03/07 03:26:59;;;;;;;0.50;0.10;;;0.90;99.90;;;;;;4955596;28;20481;-74
2022/03/07 03:29:28;;;;;;;2.73;2.53;;;0.90;99.90;;;;;;4955882;29;20526;-74
2022/03/07 03:31:57;;;;;;;0.50;0.10;;;0.90;99.90;;;;;;4957330;29;20992;-74
2022/03/07 03:34:26;;;;;;;0.50;0.10;;;0.80;99.90;;;;;;4956427;29;21001;-75
2022/03/07 03:36:53;;;;;;;2.33;2.20;;;0.80;99.90;;;;;;4956612;29;20452;-74
2022/03/07 03:39:21;;;;;;;1.07;0.97;;;0.80;99.90;;;;;;4956871;29;20449;-74
2022/03/07 03:41:49;;;;;;;0.50;0.10;;;0.80;99.90;;;;;;4958029;29;20459;-74
2022/03/07 03:44:17;;;;;;;0.50;0.20;;;0.90;99.90;;;;;;4957870;29;20475;-74
2022/03/07 03:46:46;;;;;;;0.50;0.10;;;0.80;99.90;;;;;;4958101;29;20515;-73
2022/03/07 03:49:14;;;;;;;0.60;0.30;;;0.70;99.90;;;;;;4955579;29;20457;-75
2022/03/07 03:51:42;;;;;;;0.87;0.67;;;0.80;99.90;;;;;;4954885;29;20464;-74
2022/03/07 03:54:10;;;;;;;0.50;0.20;;;0.80;99.90;;;;;;4954462;29;20494;-74
2022/03/07 03:56:38;;;;;;;0.50;0.10;;;0.80;99.90;;;;;;4954383;29;20481;-73
2022/03/07 03:59:05;;;;;;;0.50;0.10;;;0.80;99.90;;;;;;4955325;28;20478;-74
2022/03/07 04:01:33;;;;;;;2.33;2.23;;;0.70;99.90;;;;;;4957424;29;20562;-73
2022/03/07 04:04:03;;;;;;;0.50;0.10;;;0.80;99.90;;;;;;4957010;29;20471;-74
2022/03/07 04:06:31;;;;;;;0.50;0.10;;;0.80;99.90;;;;;;4959347;29;20459;-74
2022/03/07 04:09:03;;;;;;;0.50;0.10;;;0.90;99.90;;;;;;4959246;29;20454;-74
2022/03/07 04:11:31;;;;;;;0.50;0.10;;;0.80;99.90;;;;;;4957706;29;20956;-75
2022/03/07 04:13:59;;;;;;;4.50;0.73;;;0.80;99.90;;;;;;4958019;29;20466;-74
2022/03/07 04:16:27;;;;;;;2.77;2.33;;;0.80;99.90;;;;;;4958811;29;20450;-74
2022/03/07 04:18:55;;;;;;;1.80;1.70;;;0.80;99.90;;;;;;4947133;29;20470;-74
2022/03/07 04:21:26;;;;;;;0.50;0.10;;;0.80;99.90;;;;;;4947596;29;20479;-74
2022/03/07 04:23:54;;;;;;;0.50;0.10;;;0.80;99.90;;;;;;4955886;29;20478;-74
2022/03/07 04:26:22;;;;;;;0.50;0.10;;;0.80;99.90;;;;;;4956507;29;20959;-73
2022/03/07 04:28:50;;;;;;;1.17;1.17;;;0.90;99.90;;;;;;4958306;29;20958;-74
2022/03/07 04:31:17;;;;;;;0.50;0.27;;;0.90;99.90;;;;;;4965275;29;20447;-74
2022/03/07 04:33:46;;;;;;;2.50;2.30;;;1.00;99.90;;;;;;4967561;29;20482;-74
2022/03/07 04:36:15;;;;;;;0.50;0.10;;;;;;;;;;4958764;29;20462;-74
2022/03/07 04:38:44;;;;;;;0.60;0.50;;;1.10;99.90;;;;;;4958432;29;20451;-74
2022/03/07 04:41:12;;;;;;;0.50;0.10;;;1.20;99.90;;;;;;4959444;29;20486;-74
2022/03/07 04:43:40;;;;;;;0.50;0.20;;;1.20;99.90;;;;;;4959687;29;20471;-73
2022/03/07 04:46:08;;;;;;;3.13;2.63;;;1.50;99.90;;;;;;4958940;29;20503;-74
2022/03/07 04:48:36;;;;;;;0.63;0.63;;;1.20;99.90;;;;;;4958381;29;20448;-74
2022/03/07 04:51:05;;;;;;;0.50;0.10;;;1.20;99.90;;;;;;4957564;29;20930;-74
2022/03/07 04:53:32;;;;;;;0.67;0.67;;;1.20;99.90;;;;;;4956325;29;20455;-74
2022/03/07 04:56:02;;;;;;;1.70;1.60;;;1.20;99.90;;;;;;4956198;29;20443;-74
2022/03/07 04:58:29;;;;;;;0.60;0.37;;;1.20;99.90;;;;;;4964829;29;20460;-74
2022/03/07 05:00:57;;;;;;;0.50;0.10;;;1.20;99.90;;;;;;4964782;29;20517;-74
2022/03/07 05:03:25;;;;;;;0.50;0.10;;;1.20;99.90;;;;;;4962507;29;20443;-75
2022/03/07 05:05:53;;;;;;;1.17;0.73;;;1.20;99.90;;;;;;4958477;29;20533;-74
2022/03/07 05:08:21;;;;;;;0.50;0.10;;;1.20;99.90;;;;;;4956741;29;20450;-74
2022/03/07 05:10:49;;;;;;;1.17;1.07;;;1.30;99.90;;;;;;4954939;28;20534;-74
2022/03/07 05:13:19;;;;;;;4.73;2.30;;;1.30;99.90;;;;;;4955955;29;20536;-75
2022/03/07 05:15:46;;;;;;;0.60;0.60;;;1.30;99.90;;;;;;4955651;29;20462;-75
2022/03/07 05:18:20;;;;;;;1.10;1.00;;;1.30;99.90;;;;;;4956523;29;20853;-74
2022/03/07 05:20:47;;;;;;;0.50;0.10;;;1.20;99.90;;;;;;4955986;29;20479;-74
2022/03/07 05:23:23;;;;;;;2.20;2.00;;;1.20;99.90;;;;;;4963276;29;20451;-74
2022/03/07 05:25:51;;;;;;;6.33;0.53;;;1.20;99.90;;;;;;4959117;29;20431;-74
2022/03/07 05:28:20;;;;;;;0.83;0.83;;;1.20;99.90;;;;;;4955179;29;20459;-74
2022/03/07 05:30:48;;;;;;;0.50;0.10;;;1.20;99.90;;;;;;4947937;29;20448;-73
2022/03/07 05:33:16;;;;;;;2.93;2.33;;;1.20;99.90;;;;;;4921273;29;20829;-75
2022/03/07 05:35:44;;;;;;;0.50;0.10;;;1.20;99.90;;;;;;4936620;29;20448;-74
2022/03/07 05:38:17;;;;;;;0.50;0.10;;;1.30;99.90;;;;;;4949749;29;20455;-75
2022/03/07 05:40:45;;;;;;;0.50;0.20;;;1.20;99.90;;;;;;4955909;29;20529;-75
2022/03/07 05:43:13;;;;;;;0.60;0.30;;;1.20;99.90;;;;;;4957369;29;20466;-74
2022/03/07 05:45:42;;;;;;;0.60;0.40;;;1.10;99.90;;;;;;4955878;29;20455;-74
2022/03/07 05:48:10;;;;;;;0.50;0.10;;;1.00;99.90;;;;;;4942221;29;21191;-74
2022/03/07 05:50:38;;;;;;;0.50;0.30;;;1.00;99.90;;;;;;4937327;29;20457;-74
2022/03/07 05:53:06;;;;;;;3.33;0.60;;;0.90;99.90;;;;;;4954027;29;20463;-74
2022/03/07 05:55:34;;;;;;;0.60;0.10;;;0.90;99.90;;;;;;4955570;29;20478;-74
2022/03/07 05:58:02;;;;;;;0.50;0.10;;;0.90;99.90;;;;;;4957194;29;20439;-74
2022/03/07 06:00:30;;;;;;;0.50;0.20;;;0.90;99.90;;;;;;4958572;29;20458;-74
2022/03/07 06:02:59;;;;;;;0.50;0.10;;;0.90;99.90;;;;;;4941375;29;20448;-74
2022/03/07 06:05:27;;;;;;;0.50;0.10;;;0.90;99.90;;;;;;4933680;29;20497;-73
2022/03/07 06:07:55;;;;;;;0.50;0.10;;;0.90;99.90;;;;;;4968803;29;20461;-74
2022/03/07 06:10:23;;;;;;;1.70;0.40;;;0.90;99.90;;;;;;4966212;29;20457;-74
2022/03/07 06:12:51;;;;;;;0.50;0.10;;;0.90;99.90;;;;;;4960679;29;20473;-75
2022/03/07 06:15:20;;;;;;;0.50;0.10;;;0.90;99.90;;;;;;4969320;29;20484;-74
2022/03/07 06:17:52;;;;;;;0.50;0.10;;;0.90;99.90;;;;;;4969578;29;20527;-74
2022/03/07 06:20:22;;;;;;;0.50;0.10;;;1.00;99.90;;;;;;4968366;29;20869;-74
2022/03/07 06:22:50;;;;;;;0.50;0.10;;;1.10;99.90;;;;;;4958604;28;20575;-75
2022/03/07 06:25:18;;;;;;;0.67;0.50;;;1.10;99.90;;;;;;4944883;28;20495;-74
2022/03/07 06:27:46;;;;;;;0.50;0.10;;;1.10;99.90;;;;;;4934516;29;20792;-74
2022/03/07 06:30:14;;;;;;;0.60;0.47;;;1.10;99.90;;;;;;4942066;29;20452;-74
2022/03/07 06:32:42;;;;;;;0.50;0.10;;;1.10;99.90;;;;;;4941738;29;20451;-75
2022/03/07 06:35:13;;;;;;;0.50;0.10;;;1.20;99.90;;;;;;4937244;29;20497;-74
2022/03/07 06:37:48;;;;;;;0.70;0.67;;;1.20;99.90;;;;;;4943471;29;20444;-75
2022/03/07 06:40:16;;;;;;;0.50;0.10;;;1.20;99.90;;;;;;4946240;29;20443;-75
2022/03/07 06:42:46;;;;;;;0.50;0.10;;;1.30;99.90;;;;;;4956717;29;20471;-75
2022/03/07 06:45:15;;;;;;;0.50;0.10;;;1.30;99.90;;;;;;4957584;29;20456;-75
2022/03/07 06:47:44;;;;;;;0.50;0.10;;;1.40;99.90;;;;;;4956623;29;20462;-74
2022/03/07 06:50:13;;;;;;;1.10;1.10;;;1.40;99.90;;;;;;4946975;29;20476;-75
2022/03/07 06:52:44;;;;;;;0.50;0.10;;;;;;;;;;4927724;29;20461;-75
2022/03/07 06:55:14;;;;;;;0.50;0.10;;;1.50;99.90;;;;;;4947983;29;21061;-75
2022/03/07 06:57:43;;;;;;;0.50;0.10;;;1.50;99.90;;;;;;4955048;29;20457;-75
2022/03/07 07:00:14;;;;;;;0.50;0.10;;;1.50;99.90;;;;;;4955792;29;20453;-75
2022/03/07 07:02:43;;;;;;;0.50;0.10;;;1.50;99.90;;;;;;4954917;29;20474;-74
2022/03/07 07:05:11;;;;;;;0.50;0.10;;;1.60;99.90;;;;;;4956230;29;20477;-76
2022/03/07 07:07:39;;;;;;;0.50;0.10;;;1.50;99.90;;;;;;4948792;29;20459;-76
2022/03/07 07:10:08;;;;;;;0.50;0.23;;;1.70;99.90;;;;;;4961546;29;20529;-75
2022/03/07 07:12:38;;;;;;;1.67;0.97;;;1.70;99.90;;;;;;4958630;29;20447;-75
2022/03/07 07:15:07;;;;;;;0.50;0.10;;;;;;;;;;4954918;29;20467;-75
2022/03/07 07:17:35;;;;;;;0.50;0.20;;;1.90;99.90;;;;;;4958756;29;20451;-76
2022/03/07 07:20:04;;;;;;;0.50;0.10;;;1.90;99.90;;;;;;4953729;29;20486;-74
2022/03/07 07:22:32;;;;;;;0.50;0.10;;;1.90;99.90;;;;;;4938763;29;20987;-75
2022/03/07 07:25:00;;;;;;;0.50;0.10;;;1.90;99.90;;;;;;4936989;29;20484;-75
2022/03/07 07:27:28;;;;;;;0.50;0.10;;;1.90;99.90;;;;;;4934917;29;20454;-74
2022/03/07 07:29:58;;;;;;;0.50;0.10;;;2.00;99.90;;;;;;4934646;29;20456;-75
2022/03/07 07:32:26;;;;;;;0.50;0.20;;;2.00;99.90;;;;;;4934250;29;20447;-75
2022/03/07 07:34:53;;;;;;;0.87;0.87;;;2.10;99.90;;;;;;4937724;29;20470;-75
2022/03/07 07:37:21;;;;;;;0.50;0.10;;;2.10;99.90;;;;;;4938374;29;20451;-75
2022/03/07 07:39:49;;;;;;;1.07;1.07;;;2.20;99.90;;;;;;4941782;29;20461;-75
2022/03/07 07:42:17;;;;;;;1.87;0.80;;;2.20;99.90;;;;;;4958628;29;20499;-75
2022/03/07 07:44:45;;;;;;;0.60;0.43;;;2.20;99.90;;;;;;4958292;29;20478;-75
2022/03/07 07:47:15;;;;;;;0.50;0.20;;;2.10;99.90;;;;;;4952977;29;20451;-74
2022/03/07 07:49:43;;;;;;;0.50;0.20;;;2.10;99.90;;;;;;4939380;29;20490;-75
2022/03/07 07:52:11;;;;;;;0.50;0.20;;;2.10;99.90;;;;;;4938554;29;20467;-75
2022/03/07 07:54:39;;;;;;;0.90;0.63;;;2.20;99.90;;;;;;4940146;29;20479;-75
2022/03/07 07:57:07;;;;;;;0.50;0.10;;;2.20;99.90;;;;;;4954890;29;20462;-75
2022/03/07 07:59:35;;;;;;;0.50;0.10;;;2.20;99.90;;;;;;4957856;29;20763;-75
2022/03/07 08:02:19;;;;;;;1.27;1.17;;;2.30;99.90;;;;;;4957648;29;20541;-75
2022/03/07 08:04:47;;;;;;;0.50;0.10;;;2.30;99.90;;;;;;4919463;29;20470;-76
2022/03/07 08:07:15;;;;;;;0.50;0.10;;;2.40;99.90;;;;;;4921160;29;20452;-76
2022/03/07 08:09:43;;;;;;;0.50;0.10;;;2.50;99.90;;;;;;4941764;29;20456;-73
2022/03/07 08:12:11;;;;;;;0.50;0.10;;;2.60;99.90;;;;;;4963344;29;21004;-75
2022/03/07 08:14:39;;;;;;;0.50;0.10;;;2.70;99.90;;;;;;4952689;29;20479;-75
2022/03/07 08:17:08;;;;;;;0.60;0.30;;;2.80;99.90;;;;;;4941784;29;20962;-74
2022/03/07 08:19:37;;;;;;;0.50;0.10;;;2.80;99.90;;;;;;4938934;29;20478;-75
2022/03/07 08:22:05;;;;;;;0.50;0.10;;;2.70;99.90;;;;;;4939974;29;20500;-75
2022/03/07 08:24:33;;;;;;;1.33;1.23;;;2.60;99.90;;;;;;4939345;29;20476;-74
2022/03/07 08:27:01;;;;;;;0.50;0.17;;;2.70;99.90;;;;;;4947653;29;20451;-74
2022/03/07 08:29:29;;;;;;;0.50;0.10;;;2.70;99.90;;;;;;4969858;29;20450;-74
2022/03/07 08:31:59;;;;;;;0.50;0.10;;;2.70;99.90;;;;;;4962455;29;20476;-74
2022/03/07 08:34:27;;;;;;;2.30;1.37;;;2.80;99.90;;;;;;4956966;29;20873;-74
2022/03/07 08:36:56;;;;;;;1.10;0.90;;;3.00;99.90;;;;;;4956985;29;20460;-74
2022/03/07 08:39:25;;;;;;;0.50;0.10;;;3.00;99.90;;;;;;4956686;29;20444;-74
2022/03/07 08:41:53;;;;;;;0.60;0.40;;;2.90;99.90;;;;;;4957027;29;20460;-75
2022/03/07 08:44:21;;;;;;;3.60;2.30;;;2.90;99.90;;;;;;4957360;28;21005;-75
2022/03/07 08:46:49;;;;;;;0.50;0.10;;;3.00;99.90;;;;;;4939781;29;20460;-74
2022/03/07 08:49:17;;;;;;;2.30;2.20;;;3.10;99.90;;;;;;4931938;29;20551;-75
2022/03/07 08:51:46;;;;;;;0.60;0.23;;;3.00;99.90;;;;;;4938770;29;20456;-75
2022/03/07 08:54:17;;;;;;;0.60;0.40;;;3.00;99.90;;;;;;4938931;29;20526;-75
2022/03/07 08:56:45;;;;;;;1.27;1.17;;;3.00;99.90;;;;;;4953761;29;20456;-74
2022/03/07 08:59:13;;;;;;;0.50;0.10;;;3.00;99.90;;;;;;4957850;29;20459;-76
2022/03/07 09:01:41;;;;;;;0.67;0.30;;;3.00;99.90;;;;;;4958142;29;20464;-75
2022/03/07 09:04:09;;;;;;;0.50;0.10;;;3.10;99.90;;;;;;4958877;29;21056;-75
2022/03/07 09:06:36;;;;;;;0.50;0.10;;;3.10;99.90;;;;;;4961674;29;20547;-75
2022/03/07 09:09:04;;;;;;;0.50;0.10;;;3.20;99.90;;;;;;4943080;29;20555;-73
2022/03/07 09:11:53;;;;;;;0.50;0.10;;;3.30;99.90;;;;;;4920570;29;20499;-75
2022/03/07 09:14:21;;;;;;;0.50;0.10;;;3.40;99.90;;;;;;4936196;29;20847;-76
2022/03/07 09:16:49;;;;;;;0.50;0.10;;;3.50;99.90;;;;;;4944020;29;20975;-75
2022/03/07 09:19:17;;;;;;;0.50;0.10;;;3.70;99.90;;;;;;4945442;29;20509;-75
2022/03/07 09:21:46;;;;;;;0.50;0.10;;;3.70;99.90;;;;;;4947458;29;20453;-75
2022/03/07 09:24:14;;;;;;;0.50;0.10;;;3.80;99.90;;;;;;4943664;29;20819;-74
2022/03/07 09:26:42;;;;;;;0.50;0.10;;;3.90;99.90;;;;;;4957007;29;20448;-74
2022/03/07 09:29:11;;;;;;;1.90;0.97;;;4.00;99.90;;;;;;4956490;29;20479;-73
2022/03/07 09:31:39;;;;;;;0.50;0.10;;;4.00;99.90;;;;;;4961089;29;20481;-74
2022/03/07 09:34:08;;;;;;;0.50;0.10;;;4.10;99.90;;;;;;4958128;29;20472;-73
2022/03/07 09:36:36;;;;;;;0.50;0.10;;;4.10;99.90;;;;;;4954773;29;20447;-75
2022/03/07 09:39:04;;;;;;;1.17;0.80;;;4.20;99.90;;;;;;4931091;29;20470;-74
2022/03/07 09:41:32;;;;;;;0.50;0.20;;;4.30;99.90;;;;;;4930200;29;20452;-75
2022/03/07 09:44:00;;;;;;;0.50;0.27;;;4.20;99.90;;;;;;4936392;29;20494;-73
2022/03/07 09:46:30;;;;;;;0.50;0.20;;;4.10;99.90;;;;;;4949345;29;20444;-74
2022/03/07 09:48:58;;;;;;;0.50;0.10;;;4.10;99.90;;;;;;4938421;29;20458;-74
2022/03/07 09:51:25;;;;;;;0.60;0.10;;;4.10;99.90;;;;;;4936601;29;20744;-75
2022/03/07 09:53:53;;;;;;;0.60;0.40;;;4.20;99.90;;;;;;4934771;29;20485;-75
2022/03/07 09:56:26;;;;;;;0.50;0.10;;;4.30;99.90;;;;;;4935456;29;20449;-76
2022/03/07 09:58:54;;;;;;;2.13;2.03;;;4.20;99.90;;;;;;4931329;29;20457;-74
2022/03/07 10:01:22;;;;;;;0.50;0.20;;;4.20;99.90;;;;;;4936551;29;20444;-74
2022/03/07 10:03:53;;;;;;;0.50;0.10;;;4.20;99.90;;;;;;4936183;29;20494;-75
2022/03/07 10:06:21;;;;;;;0.57;0.17;;;4.20;99.90;;;;;;4936240;29;20445;-76
2022/03/07 10:08:54;;;;;;;0.50;0.10;;;4.20;99.90;;;;;;4938482;29;20480;-75
2022/03/07 10:11:23;;;;;;;0.50;0.27;;;4.20;99.90;;;;;;4935132;29;20441;-75
2022/03/07 10:13:53;;;;;;;1.10;0.83;;;4.20;99.90;;;;;;4938309;29;20477;-75
2022/03/07 10:16:21;;;;;;;0.50;0.10;;;4.30;99.90;;;;;;4937751;29;20449;-74
2022/03/07 10:18:54;;;;;;;0.50;0.20;;;4.30;99.90;;;;;;4944572;29;20501;-75
2022/03/07 10:21:24;;;;;;;0.50;0.10;;;4.30;99.90;;;;;;4946564;29;20457;-75
2022/03/07 10:23:53;;;;;;;1.47;0.73;;;4.20;99.90;;;;;;4940552;29;20513;-76
2022/03/07 10:26:22;;;;;;;0.50;0.20;;;4.30;99.90;;;;;;4942014;29;20556;-75
2022/03/07 10:28:54;;;;;;;0.50;0.10;;;4.50;99.90;;;;;;4937464;29;20449;-75
2022/03/07 10:31:34;;;;;;;0.50;0.10;;;4.50;99.90;;;;;;4933392;29;20458;-75
2022/03/07 10:34:06;;;;;;;0.93;0.83;;;4.50;99.90;;;;;;4934708;29;20857;-76
2022/03/07 10:36:36;;;;;;;0.50;0.10;;;4.50;99.90;;;;;;4945607;29;20548;-74
2022/03/07 10:39:06;;;;;;;0.50;0.10;;;4.50;99.90;;;;;;4952765;29;20457;-74
2022/03/07 10:41:36;;;;;;;0.60;0.10;;;4.40;99.90;;;;;;4939822;29;21000;-76
2022/03/07 10:44:05;;;;;;;0.67;0.50;;;4.50;99.90;;;;;;4936731;29;20494;-74
2022/03/07 10:46:33;;;;;;;1.23;0.60;;;4.60;99.90;;;;;;4936249;29;20449;-76
2022/03/07 10:49:01;;;;;;;0.80;0.30;;;4.00;99.90;;;;;;4936547;29;20455;-75
2022/03/07 10:51:32;;;;;;;0.50;0.10;;;4.70;99.90;;;;;;4939554;29;20940;-73
2022/03/07 10:54:10;;;;;;;1.40;1.30;;;4.70;99.90;;;;;;4936727;29;20458;-75
2022/03/07 10:56:49;;;;;;;0.60;0.30;;;4.60;99.90;;;;;;4935934;29;20706;-75
2022/03/07 10:59:27;;;;;;;0.50;0.10;;;4.70;99.90;;;;;;4937283;29;20457;-75
2022/03/07 11:02:01;;;;;;;1.13;1.03;;;4.70;99.90;;;;;;4935037;29;20441;-74
2022/03/07 11:04:29;;;;;;;1.33;0.50;;;4.70;99.90;;;;;;4934684;29;20500;-76
2022/03/07 11:06:59;;;;;;;0.70;0.50;;;4.60;99.90;;;;;;4935333;29;20454;-75
2022/03/07 11:09:27;;;;;;;0.50;0.20;;;4.60;99.90;;;;;;4941076;29;20446;-75
2022/03/07 11:11:56;;;;;;;0.50;0.10;;;4.50;99.90;;;;;;4939635;29;20448;-76
2022/03/07 11:14:27;;;;;;;0.50;0.10;;;4.50;99.90;;;;;;4969000;29;20463;-76
2022/03/07 11:16:57;;;;;;;1.33;0.67;;;4.50;99.90;;;;;;4963290;29;20509;-75
2022/03/07 11:19:26;;;;;;;0.50;0.10;;;4.50;99.90;;;;;;4947625;29;20456;-77
2022/03/07 11:21:58;;;;;;;0.60;0.20;;;4.50;99.90;;;;;;4943611;29;20456;-75
2022/03/07 11:24:28;;;;;;;1.50;1.40;;;4.50;99.90;;;;;;4945014;29;20497;-75
2022/03/07 11:27:00;;;;;;;0.50;0.20;;;4.50;99.90;;;;;;4953378;29;20483;-76
2022/03/07 11:29:36;;;;;;;0.50;0.10;;;4.50;99.90;;;;;;4963811;29;20459;-73
2022/03/07 11:32:06;;;;;;;0.50;0.20;;;4.50;99.90;;;;;;4967501;29;20863;-76
2022/03/07 11:34:34;;;;;;;0.50;0.30;;;4.50;99.90;;;;;;4964007;29;20470;-76
2022/03/07 11:37:29;;;;;;;0.50;0.20;;;4.50;99.90;;;;;;4952830;29;21030;-76
2022/03/07 11:39:59;;;;;;;0.50;0.10;;;4.50;99.90;;;;;;4939552;29;20553;-77
2022/03/07 11:42:36;;;;;;;0.50;0.10;;;4.50;99.90;;;;;;4953747;29;20482;-76
2022/03/07 11:45:07;;;;;;;0.50;0.10;;;4.70;99.90;;;;;;4947131;29;20505;-77
2022/03/07 11:47:38;;;;;;;0.50;0.10;;;4.70;99.90;;;;;;4944527;29;20542;-77
2022/03/07 11:50:08;;;;;;;0.50;0.10;;;4.70;99.90;;;;;;4945829;29;20441;-78
2022/03/07 11:52:36;;;;;;;0.50;0.10;;;4.80;99.90;;;;;;4944887;29;20456;-78
2022/03/07 11:55:16;;;;;;;0.50;0.10;;;4.90;99.90;;;;;;4953793;29;20467;-76
2022/03/07 11:57:46;;;;;;;0.80;0.80;;;4.90;99.90;;;;;;4950447;29;20454;-77
2022/03/07 12:00:19;;;;;;;0.50;0.10;;;5.00;99.90;;;;;;4947086;29;20446;-77
2022/03/07 12:02:49;;;;;;;1.63;1.53;;;5.00;99.90;;;;;;4948264;29;20452;-77
2022/03/07 12:05:28;;;;;;;0.50;0.20;;;5.10;99.90;;;;;;4953176;29;20484;-77
2022/03/07 12:08:09;;;;;;;0.70;0.43;;;5.00;99.90;;;;;;4946075;29;20439;-78
2022/03/07 12:10:39;;;;;;;0.50;0.10;;;5.00;99.90;;;;;;4956291;29;20543;-76
2022/03/07 12:13:09;;;;;;;0.80;0.60;;;5.00;99.90;;;;;;4958047;29;20781;-77
2022/03/07 12:15:48;;;;;;;0.50;0.17;;;5.00;99.90;;;;;;4959069;29;20816;-76
2022/03/07 12:18:17;;;;;;;0.80;0.30;;;5.00;99.90;;;;;;4944724;29;20534;-77
2022/03/07 12:20:49;;;;;;;0.97;0.87;;;5.10;99.90;;;;;;4938571;29;20454;-78
2022/03/07 12:23:18;;;;;;;0.50;0.10;;;5.10;99.90;;;;;;4940111;29;20821;-76
2022/03/07 12:25:47;;;;;;;0.50;0.20;;;5.10;99.90;;;;;;4960783;29;20495;-76
2022/03/07 12:28:15;;;;;;;0.50;0.10;;;5.20;99.90;;;;;;4959059;29;20562;-77
2022/03/07 12:30:43;;;;;;;0.60;0.20;;;5.30;99.90;;;;;;4959157;29;20488;-77
2022/03/07 12:33:12;;;;;;;0.60;0.30;;;5.40;99.90;;;;;;4961624;29;20467;-78
2022/03/07 12:35:40;;;;;;;0.50;0.10;;;5.50;99.90;;;;;;4960158;29;20464;-78
2022/03/07 12:38:09;;;;;;;0.50;0.10;;;5.50;99.90;;;;;;4957406;29;20504;-78
2022/03/07 12:40:37;;;;;;;0.50;0.20;;;5.50;99.90;;;;;;4957446;29;20459;-77
2022/03/07 12:43:08;;;;;;;0.50;0.10;;;5.50;99.90;;;;;;4956915;29;20436;-77
2022/03/07 12:45:45;;;;;;;0.50;0.10;;;5.50;99.90;;;;;;4956270;29;20594;-77
2022/03/07 12:48:13;;;;;;;0.60;0.50;;;5.60;99.90;;;;;;4956887;29;20443;-77
2022/03/07 12:50:41;;;;;;;0.50;0.10;;;5.60;99.90;;;;;;4949011;29;20464;-77
2022/03/07 12:53:13;;;;;;;1.67;1.13;;;5.60;99.90;;;;;;4940550;29;20505;-76
2022/03/07 12:55:43;;;;;;;0.60;0.30;;;5.70;99.90;;;;;;4945769;29;20445;-76
2022/03/07 12:58:18;;;;;;;0.50;0.10;;;5.70;99.90;;;;;;4937239;29;20452;-77
2022/03/07 13:00:46;;;;;;;1.53;0.83;;;5.80;99.90;;;;;;4936337;29;20540;-76
2022/03/07 13:03:14;;;;;;;0.77;0.43;;;5.90;99.90;;;;;;4939347;29;20457;-76
2022/03/07 13:05:46;;;;;;;0.53;0.10;;;5.90;99.90;;;;;;4935849;29;20975;-76
2022/03/07 13:08:14;;;;;;;0.50;0.10;;;5.90;99.90;;;;;;4936095;29;20984;-76
2022/03/07 13:10:49;;;;;;;0.50;0.10;;;5.90;99.90;;;;;;4936419;29;20450;-74